Beaver, Oklahoma
Current Conditions -  °F | °C
As of 7:55 AM on Wednesday 28 Jan 2015 (Local Time) from KLBL Reporting Station
Clear Clear  
Wind Chill:   Ceiling: Unl
Heat Index:   Visibility: 10mi
Dew Point: -1°   Wind: 8mph
Humidity: 75%   Direction: 240°WSW
Pressure: 29.94"   Gusts: NA
Location:  36.82°N, 100.52°W
Report Text: KLBL 281355Z AUTO 24007KT 10SM CLR 03/M01 A2994 RMK AO1
Loading
Personal Weather Stations






























Interactive Weather Map New forecast layout! Learn more

10-Day Weather Forecast

Advertisements
Track Severe Weather on mobile